sensor_id;sensor_type;location;lat;lon;timestamp;pressure;altitude;pressure_sealevel;temperature;humidity
33155;BME280;19511;42.682;23.332;2023-04-26T00:01:45;94172.81;;;7.78;100.00
33155;BME280;19511;42.682;23.332;2023-04-26T00:04:11;94245.66;;;8.25;100.00
33155;BME280;19511;42.682;23.332;2023-04-26T00:06:36;94250.44;;;8.21;100.00
33155;BME280;19511;42.682;23.332;2023-04-26T00:09:02;94214.66;;;7.93;100.00
33155;BME280;19511;42.682;23.332;2023-04-26T00:11:29;94176.84;;;7.70;100.00
33155;BME280;19511;42.682;23.332;2023-04-26T00:13:54;94237.97;;;8.12;100.00
33155;BME280;19511;42.682;23.332;2023-04-26T00:16:20;94120.72;;;7.37;100.00
33155;BME280;19511;42.682;23.332;2023-04-26T00:18:46;94230.94;;;8.11;100.00
33155;BME280;19511;42.682;23.332;2023-04-26T00:21:11;94201.19;;;7.99;100.00
33155;BME280;19511;42.682;23.332;2023-04-26T00:23:37;94207.47;;;7.99;100.00
33155;BME280;19511;42.682;23.332;2023-04-26T00:26:02;94230.78;;;7.95;100.00
33155;BME280;19511;42.682;23.332;2023-04-26T00:28:31;94120.22;;;7.14;100.00
33155;BME280;19511;42.682;23.332;2023-04-26T00:30:57;94194.66;;;7.62;100.00
33155;BME280;19511;42.682;23.332;2023-04-26T00:33:26;94226.66;;;7.79;100.00
33155;BME280;19511;42.682;23.332;2023-04-26T00:35:53;94199.38;;;7.61;100.00
33155;BME280;19511;42.682;23.332;2023-04-26T00:38:19;94145.19;;;7.27;100.00
33155;BME280;19511;42.682;23.332;2023-04-26T00:40:45;94215.38;;;7.70;100.00
33155;BME280;19511;42.682;23.332;2023-04-26T00:43:10;94216.16;;;7.71;100.00
33155;BME280;19511;42.682;23.332;2023-04-26T00:45:38;94214.91;;;7.75;100.00
33155;BME280;19511;42.682;23.332;2023-04-26T00:48:04;94193.91;;;7.58;100.00
33155;BME280;19511;42.682;23.332;2023-04-26T00:50:30;94177.56;;;7.47;100.00
33155;BME280;19511;42.682;23.332;2023-04-26T00:52:58;94198.69;;;7.54;100.00
33155;BME280;19511;42.682;23.332;2023-04-26T00:55:26;94202.59;;;7.56;100.00
33155;BME280;19511;42.682;23.332;2023-04-26T00:57:52;94229.19;;;7.66;100.00
33155;BME280;19511;42.682;23.332;2023-04-26T01:00:18;94213.84;;;7.65;100.00
33155;BME280;19511;42.682;23.332;2023-04-26T01:02:43;94218.53;;;7.68;100.00
33155;BME280;19511;42.682;23.332;2023-04-26T01:05:10;94198.69;;;7.54;100.00
33155;BME280;19511;42.682;23.332;2023-04-26T01:07:36;94182.00;;;7.37;100.00
33155;BME280;19511;42.682;23.332;2023-04-26T01:10:04;94232.44;;;7.58;100.00
33155;BME280;19511;42.682;23.332;2023-04-26T01:12:30;94228.13;;;7.57;100.00
33155;BME280;19511;42.682;23.332;2023-04-26T01:14:56;94177.16;;;7.17;100.00
33155;BME280;19511;42.682;23.332;2023-04-26T01:17:23;94209.84;;;7.43;100.00
33155;BME280;19511;42.682;23.332;2023-04-26T01:19:50;94226.13;;;7.61;100.00
33155;BME280;19511;42.682;23.332;2023-04-26T01:22:20;94218.22;;;7.63;100.00
33155;BME280;19511;42.682;23.332;2023-04-26T01:24:49;94191.78;;;7.42;100.00
33155;BME280;19511;42.682;23.332;2023-04-26T01:27:15;94187.13;;;7.35;100.00
33155;BME280;19511;42.682;23.332;2023-04-26T01:29:41;94179.41;;;7.26;100.00
33155;BME280;19511;42.682;23.332;2023-04-26T01:32:07;94194.66;;;7.31;100.00
33155;BME280;19511;42.682;23.332;2023-04-26T01:34:33;94194.84;;;7.16;100.00
33155;BME280;19511;42.682;23.332;2023-04-26T01:36:59;94125.56;;;6.63;100.00
33155;BME280;19511;42.682;23.332;2023-04-26T01:39:25;94181.31;;;6.98;100.00
33155;BME280;19511;42.682;23.332;2023-04-26T01:41:52;94215.22;;;7.23;100.00
33155;BME280;19511;42.682;23.332;2023-04-26T01:44:17;94196.88;;;7.12;100.00
33155;BME280;19511;42.682;23.332;2023-04-26T01:46:43;94215.16;;;7.26;100.00
33155;BME280;19511;42.682;23.332;2023-04-26T01:49:09;94225.59;;;7.39;100.00
33155;BME280;19511;42.682;23.332;2023-04-26T01:51:34;94228.41;;;7.35;100.00
33155;BME280;19511;42.682;23.332;2023-04-26T01:54:00;94208.34;;;7.38;100.00
33155;BME280;19511;42.682;23.332;2023-04-26T01:56:26;94214.47;;;7.49;100.00
33155;BME280;19511;42.682;23.332;2023-04-26T01:58:51;94208.19;;;7.49;100.00
33155;BME280;19511;42.682;23.332;2023-04-26T02:01:17;94208.13;;;7.52;100.00
33155;BME280;19511;42.682;23.332;2023-04-26T02:03:42;94181.75;;;7.28;100.00
33155;BME280;19511;42.682;23.332;2023-04-26T02:06:11;94183.44;;;7.18;100.00
33155;BME280;19511;42.682;23.332;2023-04-26T02:08:36;94183.91;;;7.40;100.00
33155;BME280;19511;42.682;23.332;2023-04-26T02:11:04;94203.81;;;7.51;100.00
33155;BME280;19511;42.682;23.332;2023-04-26T02:13:31;94204.47;;;7.32;100.00
33155;BME280;19511;42.682;23.332;2023-04-26T02:15:56;94205.63;;;7.34;100.00
33155;BME280;19511;42.682;23.332;2023-04-26T02:18:22;94199.91;;;7.22;100.00
33155;BME280;19511;42.682;23.332;2023-04-26T02:20:47;94198.47;;;7.10;100.00
33155;BME280;19511;42.682;23.332;2023-04-26T02:23:13;94168.06;;;6.90;100.00
33155;BME280;19511;42.682;23.332;2023-04-26T02:25:39;94199.31;;;7.03;100.00
33155;BME280;19511;42.682;23.332;2023-04-26T02:28:09;94165.81;;;6.81;100.00
33155;BME280;19511;42.682;23.332;2023-04-26T02:30:35;94174.41;;;6.83;100.00
33155;BME280;19511;42.682;23.332;2023-04-26T02:33:01;94190.50;;;6.84;100.00
33155;BME280;19511;42.682;23.332;2023-04-26T02:35:26;94097.25;;;6.32;100.00
33155;BME280;19511;42.682;23.332;2023-04-26T02:37:51;94200.91;;;7.00;100.00
33155;BME280;19511;42.682;23.332;2023-04-26T02:40:18;94183.75;;;6.89;100.00
33155;BME280;19511;42.682;23.332;2023-04-26T02:42:43;94204.81;;;7.03;100.00
33155;BME280;19511;42.682;23.332;2023-04-26T02:45:16;94127.59;;;6.56;100.00
33155;BME280;19511;42.682;23.332;2023-04-26T02:47:45;94204.66;;;7.17;100.00
33155;BME280;19511;42.682;23.332;2023-04-26T02:50:11;94186.41;;;7.31;100.00
33155;BME280;19511;42.682;23.332;2023-04-26T02:52:36;94167.63;;;7.26;100.00
33155;BME280;19511;42.682;23.332;2023-04-26T02:55:02;94192.50;;;7.46;100.00
33155;BME280;19511;42.682;23.332;2023-04-26T02:57:29;94163.59;;;7.34;100.00
33155;BME280;19511;42.682;23.332;2023-04-26T02:59:56;94177.44;;;7.54;100.00
33155;BME280;19511;42.682;23.332;2023-04-26T03:02:21;94178.72;;;7.49;100.00
33155;BME280;19511;42.682;23.332;2023-04-26T03:04:50;94180.81;;;7.38;100.00
33155;BME280;19511;42.682;23.332;2023-04-26T03:07:15;94187.09;;;7.39;100.00
33155;BME280;19511;42.682;23.332;2023-04-26T03:09:41;94185.91;;;7.40;100.00
33155;BME280;19511;42.682;23.332;2023-04-26T03:12:08;94192.56;;;7.42;100.00
33155;BME280;19511;42.682;23.332;2023-04-26T03:14:34;94160.56;;;7.25;100.00
33155;BME280;19511;42.682;23.332;2023-04-26T03:17:02;94162.84;;;7.30;100.00
33155;BME280;19511;42.682;23.332;2023-04-26T03:19:27;94185.31;;;7.56;100.00
33155;BME280;19511;42.682;23.332;2023-04-26T03:21:54;94149.25;;;7.46;100.00
33155;BME280;19511;42.682;23.332;2023-04-26T03:24:20;94153.09;;;7.52;100.00
33155;BME280;19511;42.682;23.332;2023-04-26T03:26:45;94145.13;;;7.62;100.00
33155;BME280;19511;42.682;23.332;2023-04-26T03:29:14;94070.47;;;7.05;100.00
33155;BME280;19511;42.682;23.332;2023-04-26T03:31:40;94179.75;;;7.59;100.00
33155;BME280;19511;42.682;23.332;2023-04-26T03:34:13;94166.22;;;7.41;100.00
33155;BME280;19511;42.682;23.332;2023-04-26T03:36:41;94159.13;;;7.44;100.00
33155;BME280;19511;42.682;23.332;2023-04-26T03:39:07;94184.47;;;7.59;100.00
33155;BME280;19511;42.682;23.332;2023-04-26T03:41:32;94171.91;;;7.58;100.00
33155;BME280;19511;42.682;23.332;2023-04-26T03:44:00;94188.38;;;7.61;100.00
33155;BME280;19511;42.682;23.332;2023-04-26T03:46:25;94175.06;;;7.56;100.00
33155;BME280;19511;42.682;23.332;2023-04-26T03:48:50;94197.66;;;7.71;100.00
33155;BME280;19511;42.682;23.332;2023-04-26T03:51:16;94192.16;;;7.71;100.00
33155;BME280;19511;42.682;23.332;2023-04-26T03:53:45;94132.03;;;7.42;100.00
33155;BME280;19511;42.682;23.332;2023-04-26T03:56:13;94196.69;;;7.85;100.00
33155;BME280;19511;42.682;23.332;2023-04-26T03:58:38;94188.94;;;7.76;100.00
33155;BME280;19511;42.682;23.332;2023-04-26T04:01:06;94208.31;;;7.96;100.00
33155;BME280;19511;42.682;23.332;2023-04-26T04:03:32;94102.25;;;7.37;100.00
33155;BME280;19511;42.682;23.332;2023-04-26T04:05:59;94205.53;;;8.24;100.00
33155;BME280;19511;42.682;23.332;2023-04-26T04:08:24;94082.84;;;7.48;100.00
33155;BME280;19511;42.682;23.332;2023-04-26T04:10:54;94203.69;;;8.41;100.00
33155;BME280;19511;42.682;23.332;2023-04-26T04:13:20;94139.47;;;7.96;100.00
33155;BME280;19511;42.682;23.332;2023-04-26T04:15:46;94221.63;;;8.53;100.00
33155;BME280;19511;42.682;23.332;2023-04-26T04:18:12;94215.25;;;8.56;100.00
33155;BME280;19511;42.682;23.332;2023-04-26T04:20:37;94215.09;;;8.66;100.00
33155;BME280;19511;42.682;23.332;2023-04-26T04:23:03;94139.34;;;8.27;100.00
33155;BME280;19511;42.682;23.332;2023-04-26T04:25:30;94212.63;;;8.72;100.00
33155;BME280;19511;42.682;23.332;2023-04-26T04:28:00;94200.66;;;8.59;100.00
33155;BME280;19511;42.682;23.332;2023-04-26T04:30:27;94208.81;;;8.66;100.00
33155;BME280;19511;42.682;23.332;2023-04-26T04:32:53;94127.50;;;8.30;100.00
33155;BME280;19511;42.682;23.332;2023-04-26T04:35:24;94182.06;;;8.63;100.00
33155;BME280;19511;42.682;23.332;2023-04-26T04:37:56;94222.16;;;8.91;100.00
33155;BME280;19511;42.682;23.332;2023-04-26T04:40:26;94201.13;;;8.97;100.00
33155;BME280;19511;42.682;23.332;2023-04-26T04:42:51;94205.00;;;9.00;100.00
33155;BME280;19511;42.682;23.332;2023-04-26T04:45:18;94137.13;;;8.66;100.00
33155;BME280;19511;42.682;23.332;2023-04-26T04:47:44;94208.50;;;9.24;100.00
33155;BME280;19511;42.682;23.332;2023-04-26T04:50:10;94205.25;;;9.29;100.00
33155;BME280;19511;42.682;23.332;2023-04-26T04:52:35;94210.13;;;9.22;100.00
33155;BME280;19511;42.682;23.332;2023-04-26T04:55:01;94227.72;;;9.28;100.00
33155;BME280;19511;42.682;23.332;2023-04-26T04:57:28;94219.47;;;9.28;100.00
33155;BME280;19511;42.682;23.332;2023-04-26T04:59:54;94227.72;;;9.28;100.00
33155;BME280;19511;42.682;23.332;2023-04-26T05:02:19;94220.59;;;9.30;100.00
33155;BME280;19511;42.682;23.332;2023-04-26T05:04:45;94231.94;;;9.36;100.00
33155;BME280;19511;42.682;23.332;2023-04-26T05:07:10;94211.03;;;9.15;100.00
33155;BME280;19511;42.682;23.332;2023-04-26T05:09:39;94214.94;;;9.18;100.00
33155;BME280;19511;42.682;23.332;2023-04-26T05:12:05;94223.22;;;9.38;100.00
33155;BME280;19511;42.682;23.332;2023-04-26T05:14:30;94220.19;;;9.32;100.00
33155;BME280;19511;42.682;23.332;2023-04-26T05:16:56;94217.56;;;9.45;100.00
33155;BME280;19511;42.682;23.332;2023-04-26T05:19:25;94222.47;;;9.74;100.00
33155;BME280;19511;42.682;23.332;2023-04-26T05:21:51;94213.22;;;9.64;100.00
33155;BME280;19511;42.682;23.332;2023-04-26T05:24:24;94227.84;;;9.81;100.00
33155;BME280;19511;42.682;23.332;2023-04-26T05:26:53;94223.66;;;9.93;100.00
33155;BME280;19511;42.682;23.332;2023-04-26T05:29:18;94148.47;;;9.48;100.00
33155;BME280;19511;42.682;23.332;2023-04-26T05:31:44;94229.09;;;10.13;100.00
33155;BME280;19511;42.682;23.332;2023-04-26T05:34:09;94128.59;;;9.57;100.00
33155;BME280;19511;42.682;23.332;2023-04-26T05:36:35;94232.06;;;10.22;100.00
33155;BME280;19511;42.682;23.332;2023-04-26T05:39:00;94225.34;;;10.23;100.00
33155;BME280;19511;42.682;23.332;2023-04-26T05:41:26;94140.03;;;9.56;100.00
33155;BME280;19511;42.682;23.332;2023-04-26T05:43:51;94208.31;;;10.08;100.00
33155;BME280;19511;42.682;23.332;2023-04-26T05:46:17;94204.50;;;10.19;100.00
33155;BME280;19511;42.682;23.332;2023-04-26T05:48:42;94223.38;;;10.40;100.00
33155;BME280;19511;42.682;23.332;2023-04-26T05:51:08;94096.47;;;9.63;100.00
33155;BME280;19511;42.682;23.332;2023-04-26T05:53:33;94198.66;;;10.50;100.00
33155;BME280;19511;42.682;23.332;2023-04-26T05:55:59;94216.25;;;10.72;100.00
33155;BME280;19511;42.682;23.332;2023-04-26T05:58:24;94219.00;;;10.89;100.00
33155;BME280;19511;42.682;23.332;2023-04-26T06:00:50;94101.59;;;9.98;100.00
33155;BME280;19511;42.682;23.332;2023-04-26T06:03:15;94220.13;;;10.91;100.00
33155;BME280;19511;42.682;23.332;2023-04-26T06:05:41;94234.81;;;11.05;100.00
33155;BME280;19511;42.682;23.332;2023-04-26T06:08:06;94193.31;;;10.59;100.00
33155;BME280;19511;42.682;23.332;2023-04-26T06:10:32;94220.25;;;10.38;100.00
33155;BME280;19511;42.682;23.332;2023-04-26T06:12:57;94180.66;;;10.08;100.00
33155;BME280;19511;42.682;23.332;2023-04-26T06:15:23;94238.22;;;10.63;100.00
33155;BME280;19511;42.682;23.332;2023-04-26T06:17:48;94239.19;;;10.73;100.00
33155;BME280;19511;42.682;23.332;2023-04-26T06:20:13;94234.91;;;10.85;100.00
33155;BME280;19511;42.682;23.332;2023-04-26T06:22:39;94167.91;;;10.31;100.00
33155;BME280;19511;42.682;23.332;2023-04-26T06:25:06;94218.91;;;10.92;100.00
33155;BME280;19511;42.682;23.332;2023-04-26T06:27:31;94149.09;;;10.42;100.00
33155;BME280;19511;42.682;23.332;2023-04-26T06:29:57;94241.25;;;11.15;100.00
33155;BME280;19511;42.682;23.332;2023-04-26T06:32:22;94222.03;;;11.24;100.00
33155;BME280;19511;42.682;23.332;2023-04-26T06:34:48;94191.97;;;11.09;100.00
33155;BME280;19511;42.682;23.332;2023-04-26T06:37:13;94224.84;;;11.37;100.00
33155;BME280;19511;42.682;23.332;2023-04-26T06:39:38;94143.50;;;10.75;100.00
33155;BME280;19511;42.682;23.332;2023-04-26T06:42:04;94200.81;;;11.04;100.00
33155;BME280;19511;42.682;23.332;2023-04-26T06:44:30;94217.28;;;11.24;100.00
33155;BME280;19511;42.682;23.332;2023-04-26T06:46:56;94226.53;;;11.47;100.00
33155;BME280;19511;42.682;23.332;2023-04-26T06:49:22;94206.69;;;11.36;100.00
33155;BME280;19511;42.682;23.332;2023-04-26T06:51:49;94222.72;;;11.28;100.00
33155;BME280;19511;42.682;23.332;2023-04-26T06:54:14;94228.22;;;11.57;100.00
33155;BME280;19511;42.682;23.332;2023-04-26T06:56:40;94238.13;;;11.71;100.00
33155;BME280;19511;42.682;23.332;2023-04-26T06:59:06;94235.13;;;11.79;100.00
33155;BME280;19511;42.682;23.332;2023-04-26T07:01:34;94230.94;;;11.87;100.00
33155;BME280;19511;42.682;23.332;2023-04-26T07:04:00;94207.53;;;11.62;100.00
33155;BME280;19511;42.682;23.332;2023-04-26T07:06:28;94241.22;;;11.60;100.00
33155;BME280;19511;42.682;23.332;2023-04-26T07:08:54;94236.88;;;11.59;100.00
33155;BME280;19511;42.682;23.332;2023-04-26T07:11:20;94227.44;;;11.57;100.00
33155;BME280;19511;42.682;23.332;2023-04-26T07:13:45;94216.00;;;11.42;100.00
33155;BME280;19511;42.682;23.332;2023-04-26T07:16:11;94228.88;;;11.62;100.00
33155;BME280;19511;42.682;23.332;2023-04-26T07:18:39;94230.34;;;11.66;100.00
33155;BME280;19511;42.682;23.332;2023-04-26T07:21:05;94234.00;;;11.63;100.00
33155;BME280;19511;42.682;23.332;2023-04-26T07:23:31;94233.47;;;11.68;100.00
33155;BME280;19511;42.682;23.332;2023-04-26T07:25:57;94239.09;;;11.65;100.00
33155;BME280;19511;42.682;23.332;2023-04-26T07:28:23;94245.84;;;11.64;100.00
33155;BME280;19511;42.682;23.332;2023-04-26T07:30:48;94232.00;;;11.64;100.00
33155;BME280;19511;42.682;23.332;2023-04-26T07:33:14;94226.25;;;11.58;100.00
33155;BME280;19511;42.682;23.332;2023-04-26T07:35:39;94211.78;;;11.37;100.00
33155;BME280;19511;42.682;23.332;2023-04-26T07:38:05;94245.41;;;11.65;100.00
33155;BME280;19511;42.682;23.332;2023-04-26T07:40:31;94242.22;;;11.08;100.00
33155;BME280;19511;42.682;23.332;2023-04-26T07:42:57;94252.97;;;11.35;100.00
33155;BME280;19511;42.682;23.332;2023-04-26T07:45:27;94235.59;;;11.48;100.00
33155;BME280;19511;42.682;23.332;2023-04-26T07:47:53;94257.69;;;11.64;100.00
33155;BME280;19511;42.682;23.332;2023-04-26T07:50:19;94243.25;;;11.14;100.00
33155;BME280;19511;42.682;23.332;2023-04-26T07:52:45;94255.97;;;11.41;100.00
33155;BME280;19511;42.682;23.332;2023-04-26T07:55:11;94260.59;;;11.60;100.00
33155;BME280;19511;42.682;23.332;2023-04-26T07:57:36;94240.53;;;11.69;100.00
33155;BME280;19511;42.682;23.332;2023-04-26T08:00:06;94265.97;;;11.93;100.00
33155;BME280;19511;42.682;23.332;2023-04-26T08:02:34;94195.19;;;11.50;100.00
33155;BME280;19511;42.682;23.332;2023-04-26T08:05:00;94265.19;;;11.93;100.00
33155;BME280;19511;42.682;23.332;2023-04-26T08:07:26;94266.41;;;11.92;100.00
33155;BME280;19511;42.682;23.332;2023-04-26T08:09:51;94266.91;;;12.16;100.00
33155;BME280;19511;42.682;23.332;2023-04-26T08:12:17;94251.38;;;12.19;100.00
33155;BME280;19511;42.682;23.332;2023-04-26T08:14:43;94255.41;;;12.31;100.00
33155;BME280;19511;42.682;23.332;2023-04-26T08:17:08;94251.72;;;12.47;100.00
33155;BME280;19511;42.682;23.332;2023-04-26T08:19:35;94255.59;;;12.62;100.00
33155;BME280;19511;42.682;23.332;2023-04-26T08:22:01;94244.59;;;12.71;100.00
33155;BME280;19511;42.682;23.332;2023-04-26T08:24:30;94215.88;;;12.52;100.00
33155;BME280;19511;42.682;23.332;2023-04-26T08:26:55;94255.56;;;12.88;100.00
33155;BME280;19511;42.682;23.332;2023-04-26T08:29:22;94163.09;;;12.43;100.00
33155;BME280;19511;42.682;23.332;2023-04-26T08:31:48;94254.75;;;13.00;100.00
33155;BME280;19511;42.682;23.332;2023-04-26T08:34:13;94158.00;;;12.29;100.00
33155;BME280;19511;42.682;23.332;2023-04-26T08:36:46;94263.13;;;12.87;100.00
33155;BME280;19511;42.682;23.332;2023-04-26T08:39:11;94178.44;;;12.22;100.00
33155;BME280;19511;42.682;23.332;2023-04-26T08:41:50;94250.69;;;12.79;100.00
33155;BME280;19511;42.682;23.332;2023-04-26T08:44:21;94254.38;;;12.63;100.00
33155;BME280;19511;42.682;23.332;2023-04-26T08:47:05;94172.34;;;12.01;100.00
33155;BME280;19511;42.682;23.332;2023-04-26T08:49:41;94258.94;;;12.70;100.00
33155;BME280;19511;42.682;23.332;2023-04-26T08:52:11;94254.78;;;12.74;100.00
33155;BME280;19511;42.682;23.332;2023-04-26T08:54:38;94185.00;;;12.15;100.00
33155;BME280;19511;42.682;23.332;2023-04-26T08:57:07;94263.22;;;12.84;100.00
33155;BME280;19511;42.682;23.332;2023-04-26T08:59:37;94180.44;;;12.21;100.00
33155;BME280;19511;42.682;23.332;2023-04-26T09:02:09;94249.84;;;12.31;100.00
33155;BME280;19511;42.682;23.332;2023-04-26T09:04:35;94256.06;;;12.35;100.00
33155;BME280;19511;42.682;23.332;2023-04-26T09:07:06;94250.28;;;12.55;100.00
33155;BME280;19511;42.682;23.332;2023-04-26T09:09:35;94267.34;;;12.66;100.00
33155;BME280;19511;42.682;23.332;2023-04-26T09:12:06;94266.81;;;12.46;100.00
33155;BME280;19511;42.682;23.332;2023-04-26T09:14:35;94253.94;;;12.52;100.00
33155;BME280;19511;42.682;23.332;2023-04-26T09:17:00;94179.75;;;12.17;100.00
33155;BME280;19511;42.682;23.332;2023-04-26T09:19:34;94153.38;;;12.25;100.00
33155;BME280;19511;42.682;23.332;2023-04-26T09:22:01;94247.66;;;12.99;100.00
33155;BME280;19511;42.682;23.332;2023-04-26T09:24:27;94147.56;;;12.46;100.00
33155;BME280;19511;42.682;23.332;2023-04-26T09:27:02;94267.50;;;13.46;100.00
33155;BME280;19511;42.682;23.332;2023-04-26T09:29:28;94244.63;;;13.42;100.00
33155;BME280;19511;42.682;23.332;2023-04-26T09:31:53;94239.00;;;13.32;100.00
33155;BME280;19511;42.682;23.332;2023-04-26T09:34:19;94262.91;;;13.52;100.00
33155;BME280;19511;42.682;23.332;2023-04-26T09:36:54;94270.75;;;13.66;100.00
33155;BME280;19511;42.682;23.332;2023-04-26T09:39:38;94266.53;;;13.27;100.00
33155;BME280;19511;42.682;23.332;2023-04-26T09:42:05;94249.03;;;13.17;100.00
33155;BME280;19511;42.682;23.332;2023-04-26T09:44:31;94261.00;;;13.27;100.00
33155;BME280;19511;42.682;23.332;2023-04-26T09:47:04;94257.31;;;13.43;100.00
33155;BME280;19511;42.682;23.332;2023-04-26T09:49:32;94257.38;;;13.17;100.00
33155;BME280;19511;42.682;23.332;2023-04-26T09:52:05;94257.81;;;13.50;100.00
33155;BME280;19511;42.682;23.332;2023-04-26T09:57:11;94253.19;;;13.69;100.00
33155;BME280;19511;42.682;23.332;2023-04-26T09:59:47;94254.22;;;13.63;100.00
33155;BME280;19511;42.682;23.332;2023-04-26T10:04:45;94233.78;;;13.79;100.00
33155;BME280;19511;42.682;23.332;2023-04-26T10:07:22;94247.25;;;13.80;99.22
33155;BME280;19511;42.682;23.332;2023-04-26T10:09:49;94247.78;;;13.97;100.00
33155;BME280;19511;42.682;23.332;2023-04-26T10:12:18;94248.63;;;14.07;97.49
33155;BME280;19511;42.682;23.332;2023-04-26T10:14:45;94246.81;;;13.91;98.91
33155;BME280;19511;42.682;23.332;2023-04-26T10:17:11;94247.31;;;14.21;95.81
33155;BME280;19511;42.682;23.332;2023-04-26T10:19:40;94247.34;;;14.30;93.58
33155;BME280;19511;42.682;23.332;2023-04-26T10:22:15;94201.09;;;13.83;92.80
33155;BME280;19511;42.682;23.332;2023-04-26T10:24:43;94228.75;;;13.86;93.79
33155;BME280;19511;42.682;23.332;2023-04-26T10:27:12;94250.56;;;13.97;93.22
33155;BME280;19511;42.682;23.332;2023-04-26T10:32:19;94235.75;;;13.69;93.04
33155;BME280;19511;42.682;23.332;2023-04-26T10:35:08;94199.88;;;13.62;94.45
33155;BME280;19511;42.682;23.332;2023-04-26T10:37:33;94150.25;;;13.51;93.04
33155;BME280;19511;42.682;23.332;2023-04-26T10:40:22;94240.81;;;14.24;93.69
33155;BME280;19511;42.682;23.332;2023-04-26T10:42:48;94242.88;;;14.33;93.26
33155;BME280;19511;42.682;23.332;2023-04-26T10:45:25;94233.06;;;14.19;88.63
33155;BME280;19511;42.682;23.332;2023-04-26T10:48:15;94219.13;;;14.10;90.37
33155;BME280;19511;42.682;23.332;2023-04-26T10:59:10;94232.06;;;14.35;86.55
33155;BME280;19511;42.682;23.332;2023-04-26T11:01:36;94234.53;;;14.42;85.18
33155;BME280;19511;42.682;23.332;2023-04-26T11:04:11;94226.78;;;14.28;85.80
33155;BME280;19511;42.682;23.332;2023-04-26T11:06:47;94226.19;;;14.33;87.75
33155;BME280;19511;42.682;23.332;2023-04-26T11:11:58;94176.56;;;13.59;82.03
33155;BME280;19511;42.682;23.332;2023-04-26T11:14:25;94240.16;;;14.11;81.17
33155;BME280;19511;42.682;23.332;2023-04-26T11:16:50;94238.22;;;14.30;82.78
33155;BME280;19511;42.682;23.332;2023-04-26T11:19:16;94137.44;;;13.76;80.20
33155;BME280;19511;42.682;23.332;2023-04-26T11:21:41;94227.34;;;14.54;81.74
33155;BME280;19511;42.682;23.332;2023-04-26T11:24:09;94217.13;;;14.51;80.07
33155;BME280;19511;42.682;23.332;2023-04-26T11:26:41;94222.94;;;14.34;80.12
33155;BME280;19511;42.682;23.332;2023-04-26T11:29:20;94215.47;;;14.22;80.79
33155;BME280;19511;42.682;23.332;2023-04-26T11:31:53;94238.97;;;14.21;81.96
33155;BME280;19511;42.682;23.332;2023-04-26T11:34:20;94233.44;;;14.30;80.51
33155;BME280;19511;42.682;23.332;2023-04-26T11:36:50;94232.31;;;14.18;80.10
33155;BME280;19511;42.682;23.332;2023-04-26T11:39:18;94128.81;;;13.83;80.06
33155;BME280;19511;42.682;23.332;2023-04-26T11:41:44;94236.63;;;14.60;78.77
33155;BME280;19511;42.682;23.332;2023-04-26T11:44:16;94220.16;;;14.75;77.23
33155;BME280;19511;42.682;23.332;2023-04-26T11:46:44;94233.97;;;14.97;78.06
33155;BME280;19511;42.682;23.332;2023-04-26T11:49:11;94237.53;;;15.07;75.45
33155;BME280;19511;42.682;23.332;2023-04-26T11:51:37;94220.50;;;15.05;73.50
33155;BME280;19511;42.682;23.332;2023-04-26T11:54:02;94213.56;;;15.10;72.51
33155;BME280;19511;42.682;23.332;2023-04-26T11:56:28;94208.59;;;15.14;75.20
33155;BME280;19511;42.682;23.332;2023-04-26T11:58:53;94237.72;;;15.41;71.92
33155;BME280;19511;42.682;23.332;2023-04-26T12:01:27;94221.41;;;14.93;73.83
33155;BME280;19511;42.682;23.332;2023-04-26T12:03:53;94225.16;;;15.27;74.42
33155;BME280;19511;42.682;23.332;2023-04-26T12:06:19;94220.47;;;14.77;72.85
33155;BME280;19511;42.682;23.332;2023-04-26T12:08:51;94210.31;;;15.11;73.97
33155;BME280;19511;42.682;23.332;2023-04-26T12:11:17;94214.31;;;15.10;74.14
33155;BME280;19511;42.682;23.332;2023-04-26T12:13:45;94227.78;;;14.93;74.16
33155;BME280;19511;42.682;23.332;2023-04-26T12:16:12;94229.91;;;14.80;76.40
33155;BME280;19511;42.682;23.332;2023-04-26T12:18:38;94222.22;;;14.93;75.36
33155;BME280;19511;42.682;23.332;2023-04-26T12:21:10;94185.53;;;14.35;73.63
33155;BME280;19511;42.682;23.332;2023-04-26T12:23:39;94216.06;;;14.58;76.83
33155;BME280;19511;42.682;23.332;2023-04-26T12:26:06;94151.53;;;14.22;75.94
33155;BME280;19511;42.682;23.332;2023-04-26T12:28:34;94221.28;;;14.96;77.03
33155;BME280;19511;42.682;23.332;2023-04-26T12:31:00;94192.47;;;14.72;74.04
33155;BME280;19511;42.682;23.332;2023-04-26T12:33:27;94195.53;;;14.64;73.42
33155;BME280;19511;42.682;23.332;2023-04-26T12:35:53;94200.81;;;14.31;74.44
33155;BME280;19511;42.682;23.332;2023-04-26T12:38:19;94223.94;;;14.59;75.70
33155;BME280;19511;42.682;23.332;2023-04-26T12:40:45;94132.53;;;14.30;74.28
33155;BME280;19511;42.682;23.332;2023-04-26T12:43:15;94142.22;;;14.16;74.02
33155;BME280;19511;42.682;23.332;2023-04-26T12:45:41;94219.00;;;14.54;76.29
33155;BME280;19511;42.682;23.332;2023-04-26T12:48:06;94210.91;;;14.47;77.50
33155;BME280;19511;42.682;23.332;2023-04-26T12:50:35;94214.06;;;14.58;77.21
33155;BME280;19511;42.682;23.332;2023-04-26T12:53:02;94134.06;;;13.90;79.39
33155;BME280;19511;42.682;23.332;2023-04-26T12:55:27;94216.72;;;14.21;79.74
33155;BME280;19511;42.682;23.332;2023-04-26T12:57:54;94212.47;;;14.39;78.05
33155;BME280;19511;42.682;23.332;2023-04-26T13:00:21;94212.94;;;14.46;76.27
33155;BME280;19511;42.682;23.332;2023-04-26T13:02:46;94194.94;;;14.19;76.37
33155;BME280;19511;42.682;23.332;2023-04-26T13:05:12;94212.59;;;14.35;74.75